Terminal Aerodrome Forecast
Issued by NWS

Home | Current Version | Previous Version | Text Only | Print | Product List | Glossary Off
Versions: 1 2 3 4 5 6 7 8 9 10 11 12 13 14 15 16 17 18 19

000
FTUS41 KCLE 271100
TAFFDY
TAF
KFDY 271128Z 2712/2812 VRB03KT 6SM BR FEW015 BKN120
      TEMPO 2712/2714 4SM BR
     FM271700 35007KT P6SM SCT020 BKN100
     FM280400 34005KT P6SM SKC=

USA.gov is the U.S. government's official web portal to all federal, state and local government web resources and services.